createdAt,value
2022-12-28T00:02:09.499Z,97.70
2022-12-28T00:04:58.256Z,116.50
2022-12-28T00:07:47.452Z,106.17
2022-12-28T00:11:07.884Z,107.47
2022-12-28T00:13:46.659Z,114.30
2022-12-28T00:16:39.630Z,108.70
2022-12-28T00:19:28.994Z,115.97
2022-12-28T00:22:17.879Z,110.00
2022-12-28T00:25:08.890Z,112.93
2022-12-28T00:27:57.838Z,122.87
2022-12-28T00:30:47.153Z,119.93
2022-12-28T00:33:37.233Z,118.37
2022-12-28T00:37:08.527Z,109.47
2022-12-28T00:39:35.554Z,106.07
2022-12-28T00:42:24.521Z,114.50
2022-12-28T00:45:13.902Z,116.60
2022-12-28T00:48:03.975Z,130.17
2022-12-28T00:50:54.617Z,120.50
2022-12-28T00:53:43.830Z,118.27
2022-12-28T00:56:33.172Z,123.80
2022-12-28T00:59:22.064Z,116.37
2022-12-28T01:02:11.131Z,129.87
2022-12-28T01:05:00.075Z,115.13
2022-12-28T01:07:50.338Z,119.87
2022-12-28T01:10:40.393Z,123.83
2022-12-28T01:13:29.330Z,128.53
2022-12-28T01:16:20.166Z,125.00
2022-12-28T01:19:11.037Z,113.30
2022-12-28T01:22:00.039Z,116.53
2022-12-28T01:24:51.105Z,110.67
2022-12-28T01:27:40.500Z,116.50
2022-12-28T01:30:30.575Z,122.87
2022-12-28T01:33:19.824Z,104.82
2022-12-28T01:36:10.049Z,131.33
2022-12-28T01:39:01.044Z,122.33
2022-12-28T01:41:51.749Z,101.90
2022-12-28T01:44:46.806Z,108.17
2022-12-28T01:47:36.913Z,120.83
2022-12-28T01:50:30.511Z,105.17
2022-12-28T01:53:21.920Z,104.97
2022-12-28T01:56:11.460Z,108.33
2022-12-28T01:59:02.508Z,110.07
2022-12-28T02:01:51.483Z,111.00
2022-12-28T02:04:40.675Z,108.67
2022-12-28T02:07:39.197Z,97.03
2022-12-28T12:47:31.254Z,85.60
2022-12-28T12:50:51.260Z,95.80
2022-12-28T12:53:53.907Z,85.80
2022-12-28T12:56:51.777Z,92.70
2022-12-28T12:59:51.948Z,87.77
2022-12-28T13:03:07.672Z,90.77
2022-12-28T13:05:59.611Z,84.33
2022-12-28T13:08:52.661Z,79.53
2022-12-28T13:11:42.117Z,86.72
2022-12-28T13:14:31.724Z,82.47
2022-12-28T13:17:23.297Z,83.80
2022-12-28T13:20:19.371Z,89.18
2022-12-28T13:23:18.447Z,78.03
2022-12-28T13:26:11.837Z,79.63
2022-12-28T13:29:03.545Z,81.10
2022-12-28T13:31:53.023Z,78.77
2022-12-28T13:34:51.628Z,81.80
2022-12-28T13:37:40.907Z,86.73
2022-12-28T13:40:33.012Z,79.20
2022-12-28T13:43:49.639Z,82.10
2022-12-28T13:46:41.868Z,78.13
2022-12-28T13:49:35.512Z,82.97
2022-12-28T13:52:28.223Z,83.67
2022-12-28T13:55:20.464Z,76.57
2022-12-28T13:58:14.194Z,78.50
2022-12-28T14:01:05.974Z,79.70
2022-12-28T14:04:25.970Z,81.78
2022-12-28T14:07:13.584Z,76.93
2022-12-28T14:10:02.843Z,80.40
2022-12-28T14:12:53.136Z,81.73
2022-12-28T14:15:44.687Z,73.53
2022-12-28T14:18:35.660Z,76.20
2022-12-28T14:21:35.155Z,82.20
2022-12-28T14:24:24.925Z,79.57
2022-12-28T14:27:18.674Z,73.53
2022-12-28T14:30:09.502Z,73.50
2022-12-28T14:33:22.395Z,71.10
2022-12-28T14:36:22.552Z,73.27
2022-12-28T14:39:26.520Z,71.07
2022-12-28T14:42:21.210Z,68.67
2022-12-28T14:48:49.688Z,70.43
2022-12-28T14:51:44.000Z,79.30
2022-12-28T14:54:35.435Z,68.63
2022-12-28T14:57:30.889Z,67.43
2022-12-28T15:00:16.103Z,79.20
2022-12-28T15:00:29.082Z,78.27
2022-12-28T15:03:20.987Z,72.23
2022-12-28T15:06:11.525Z,78.80
2022-12-28T15:09:01.672Z,75.60
2022-12-28T15:11:50.703Z,79.87
2022-12-28T15:14:39.972Z,76.40
2022-12-28T15:17:33.620Z,77.87
2022-12-28T15:20:22.301Z,72.90
2022-12-28T15:23:12.885Z,79.43
2022-12-28T15:26:07.440Z,76.00
2022-12-28T15:28:56.311Z,79.50
2022-12-28T15:31:45.257Z,80.10
2022-12-28T15:34:34.546Z,79.37
2022-12-28T15:37:23.823Z,75.43
2022-12-28T15:40:14.824Z,78.27
2022-12-28T15:43:04.239Z,78.87
2022-12-28T15:45:55.203Z,77.00
2022-12-28T15:48:47.606Z,75.20
2022-12-28T15:51:36.860Z,78.37
2022-12-28T15:54:25.794Z,82.13
2022-12-28T15:57:16.808Z,74.83
2022-12-28T16:00:06.819Z,76.60
2022-12-28T16:02:57.061Z,86.05
2022-12-28T16:05:46.150Z,74.50
2022-12-28T16:08:34.978Z,85.33
2022-12-28T16:11:24.739Z,78.03
2022-12-28T16:14:17.233Z,81.97
2022-12-28T16:17:06.242Z,77.30
2022-12-28T16:19:55.662Z,70.77
2022-12-28T16:22:44.922Z,75.07
2022-12-28T16:25:33.897Z,77.87
2022-12-28T16:28:23.263Z,95.50
2022-12-28T16:31:24.884Z,81.77
2022-12-28T16:34:16.579Z,82.40
2022-12-28T16:37:05.795Z,77.73
2022-12-28T16:39:55.238Z,78.53
2022-12-28T16:42:46.012Z,76.33
2022-12-28T16:45:36.020Z,81.43
2022-12-28T16:48:26.733Z,69.45
2022-12-28T16:51:15.923Z,76.37
2022-12-28T16:54:05.407Z,72.80
2022-12-28T16:56:54.889Z,76.43
2022-12-28T16:59:44.273Z,80.53
2022-12-28T17:02:33.167Z,78.30
2022-12-28T17:05:24.603Z,77.73
2022-12-28T17:08:14.024Z,79.63
2022-12-28T17:11:03.363Z,73.07
2022-12-28T17:13:52.573Z,69.63
2022-12-28T17:16:41.978Z,78.13
2022-12-28T17:19:31.023Z,78.90
2022-12-28T17:22:21.672Z,81.43
2022-12-28T17:25:10.997Z,90.83
2022-12-28T17:27:59.966Z,90.03
2022-12-28T17:30:49.181Z,83.50
2022-12-28T17:33:40.253Z,87.77
2022-12-28T17:36:29.472Z,81.03
2022-12-28T17:39:20.110Z,77.67
2022-12-28T17:42:09.169Z,80.40
2022-12-28T17:44:58.503Z,80.82
2022-12-28T17:47:48.088Z,79.27
2022-12-28T17:50:36.506Z,73.30
2022-12-28T17:53:25.423Z,74.83
2022-12-28T17:56:16.895Z,75.47
2022-12-28T17:59:06.006Z,73.13
2022-12-28T18:01:55.551Z,74.55
2022-12-28T18:04:44.605Z,75.97
2022-12-28T18:07:34.436Z,75.17
2022-12-28T18:10:23.594Z,69.33
2022-12-28T18:13:15.433Z,71.73
2022-12-28T18:16:06.454Z,67.97
2022-12-28T18:18:55.787Z,70.18
2022-12-28T18:21:45.028Z,77.50
2022-12-28T18:24:34.564Z,74.90
2022-12-28T18:27:23.428Z,74.70
2022-12-28T18:30:15.270Z,71.75
2022-12-28T18:33:04.670Z,68.77
2022-12-28T18:35:53.684Z,75.90
2022-12-28T18:38:44.108Z,74.00
2022-12-28T18:41:34.356Z,75.57
2022-12-28T18:44:23.557Z,66.60
